LTAV

Sivrihisar Airport

Sivrihisar, Turkey
TAF LTAV 151040Z 1512/1521 VRB02KT 9999 SCT035 BKN100
Issued Valid From Valid To
Nov-15 @ 10:40 UTC
(2 hours ago)
Nov-15 @ 12:00 UTC
(an hour ago)
Nov-15 @ 21:00 UTC
(in 8 hours)
Nov-15 @ 12:00 to Nov-15 @ 21:00
TAF LTAV 151040Z 1512/1521 VRB02KT 9999 SCT035 BKN100
Wind Visibility Clouds
Variable at 2 knots 10,000+ meters
  • Scattered at 3,500' AGL
  • Broken at 10,000' AGL
TAF LTAV 151040Z 1512/1521 VRB02KT 9999 SCT035 BKN100
Issued Nov-15 @ 10:40 UTC
(2 hours ago)
Valid From Nov-15 @ 12:00 UTC
(an hour ago)
Valid To Nov-15 @ 21:00 UTC
(in 8 hours)
Nov-15 @ 12:00 - Nov-15 @ 21:00
Wind Visibility
Variable at 2 knots 10,000+ meters
Clouds
  • Scattered at 3,500' AGL
  • Broken at 10,000' AGL